createdAt,value
2022-08-20T00:01:26.277Z,22.70
2022-08-20T00:03:34.510Z,22.93
2022-08-20T00:05:46.640Z,22.79
2022-08-20T00:07:49.393Z,22.93
2022-08-20T00:09:52.026Z,22.82
2022-08-20T00:11:54.685Z,22.84
2022-08-20T00:14:02.957Z,22.99
2022-08-20T00:16:07.441Z,22.88
2022-08-20T00:18:10.561Z,22.95
2022-08-20T00:20:15.294Z,22.63
2022-08-20T00:22:17.912Z,23.04
2022-08-20T00:24:20.485Z,22.90
2022-08-20T00:26:25.051Z,23.08
2022-08-20T00:28:27.675Z,22.78
2022-08-20T00:30:32.334Z,23.07
2022-08-20T00:32:59.352Z,22.87
2022-08-20T00:35:01.943Z,23.00
2022-08-20T00:37:05.080Z,22.84
2022-08-20T00:39:07.685Z,22.87
2022-08-20T00:41:17.565Z,23.04
2022-08-20T00:43:48.451Z,23.03
2022-08-20T00:45:55.469Z,22.90
2022-08-20T00:47:58.960Z,22.90
2022-08-20T00:50:01.709Z,22.80
2022-08-20T00:52:16.224Z,23.02
2022-08-20T00:54:29.833Z,22.73
2022-08-20T00:56:34.068Z,22.59
2022-08-20T00:58:37.530Z,22.78
2022-08-20T01:00:46.806Z,22.92
2022-08-20T01:02:50.642Z,22.17
2022-08-20T01:04:57.180Z,22.83
2022-08-20T01:07:00.458Z,22.58
2022-08-20T01:09:03.585Z,22.75
2022-08-20T01:11:14.813Z,22.71
2022-08-20T01:13:24.222Z,22.86
2022-08-20T01:15:31.818Z,22.79
2022-08-20T01:17:36.550Z,22.79
2022-08-20T01:19:45.342Z,22.66
2022-08-20T01:21:49.773Z,22.83
2022-08-20T01:24:14.616Z,22.62
2022-08-20T01:26:42.162Z,22.80
2022-08-20T01:29:02.016Z,22.66
2022-08-20T01:31:09.090Z,22.85
2022-08-20T01:33:12.463Z,22.62
2022-08-20T01:35:21.516Z,22.81
2022-08-20T01:37:24.085Z,22.61
2022-08-20T01:39:36.826Z,22.57
2022-08-20T01:41:57.102Z,22.38
2022-08-20T01:44:00.046Z,22.56
2022-08-20T01:46:02.688Z,22.60
2022-08-20T01:48:08.194Z,22.61
2022-08-20T01:50:23.739Z,22.63
2022-08-20T01:52:52.160Z,22.62
2022-08-20T01:54:54.929Z,22.41
2022-08-20T01:57:17.081Z,22.60
2022-08-20T01:59:19.713Z,22.25
2022-08-20T02:01:34.626Z,22.66
2022-08-20T02:03:49.680Z,22.29
2022-08-20T02:05:53.475Z,22.15
2022-08-20T02:07:56.284Z,22.46
2022-08-20T02:10:00.527Z,21.91
2022-08-20T02:12:06.199Z,22.57
2022-08-20T02:14:11.117Z,22.53
2022-08-20T02:16:14.322Z,22.29
2022-08-20T02:18:16.973Z,22.69
2022-08-20T02:20:28.247Z,22.37
2022-08-20T02:22:45.749Z,22.71
2022-08-20T02:24:53.304Z,22.49
2022-08-20T02:26:56.281Z,22.09
2022-08-20T02:29:01.129Z,22.69
2022-08-20T02:31:08.325Z,22.68
2022-08-20T02:33:14.606Z,22.58
2022-08-20T02:35:18.640Z,22.69
2022-08-20T02:37:21.200Z,22.57
2022-08-20T02:39:23.881Z,22.56
2022-08-20T02:41:26.780Z,22.44
2022-08-20T02:43:29.434Z,21.95
2022-08-20T02:45:43.742Z,22.62
2022-08-20T02:47:47.085Z,22.30
2022-08-20T02:49:49.669Z,22.33
2022-08-20T02:51:52.416Z,22.56
2022-08-20T02:53:55.439Z,22.22
2022-08-20T02:55:58.040Z,22.39
2022-08-20T02:58:00.736Z,22.26
2022-08-20T03:00:14.255Z,22.51
2022-08-20T03:02:16.842Z,22.31
2022-08-20T03:04:19.419Z,22.35
2022-08-20T03:06:27.712Z,22.33
2022-08-20T03:08:30.573Z,22.24
2022-08-20T03:10:35.953Z,22.57
2022-08-20T03:12:39.112Z,22.54
2022-08-20T03:14:41.793Z,22.03
2022-08-20T03:16:44.457Z,22.46
2022-08-20T03:18:47.824Z,22.42
2022-08-20T03:20:57.211Z,22.53
2022-08-20T03:23:00.138Z,22.33
2022-08-20T03:25:03.173Z,22.49
2022-08-20T03:27:06.432Z,21.99
2022-08-20T03:29:10.243Z,22.13
2022-08-20T03:31:15.313Z,22.13
2022-08-20T03:33:20.221Z,22.08
2022-08-20T03:35:25.942Z,22.45
2022-08-20T03:37:34.328Z,22.27
2022-08-20T03:39:37.813Z,22.08
2022-08-20T03:41:40.446Z,22.27
2022-08-20T03:43:43.041Z,22.12
2022-08-20T03:45:47.288Z,22.41
2022-08-20T03:47:51.871Z,22.39
2022-08-20T03:50:00.081Z,22.44
2022-08-20T03:52:04.593Z,22.04
2022-08-20T03:54:07.204Z,22.18
2022-08-20T03:56:09.814Z,22.07
2022-08-20T03:58:13.884Z,22.32
2022-08-20T04:00:23.861Z,22.33
2022-08-20T04:02:28.283Z,22.02
2022-08-20T04:04:30.847Z,22.03
2022-08-20T04:06:33.538Z,21.78
2022-08-20T04:08:36.161Z,22.17
2022-08-20T04:10:39.110Z,21.72
2022-08-20T04:12:48.723Z,21.94
2022-08-20T04:14:55.912Z,22.03
2022-08-20T04:16:59.405Z,22.29
2022-08-20T04:19:03.581Z,22.00
2022-08-20T04:21:06.171Z,22.16
2022-08-20T04:23:09.597Z,22.16
2022-08-20T04:25:15.931Z,22.25
2022-08-20T04:27:19.419Z,22.19
2022-08-20T04:29:23.271Z,22.15
2022-08-20T04:31:33.208Z,22.22
2022-08-20T04:33:36.006Z,22.26
2022-08-20T04:35:38.626Z,22.21
2022-08-20T04:37:42.350Z,22.02
2022-08-20T04:39:44.979Z,22.13
2022-08-20T04:41:48.224Z,22.28
2022-08-20T04:43:54.132Z,22.18
2022-08-20T04:46:01.906Z,22.36
2022-08-20T04:48:07.110Z,22.33
2022-08-20T04:50:13.224Z,22.40
2022-08-20T04:52:15.836Z,22.33
2022-08-20T04:54:18.819Z,21.82
2022-08-20T04:56:24.613Z,22.51
2022-08-20T04:58:35.065Z,22.50
2022-08-20T05:01:00.845Z,22.53
2022-08-20T05:03:04.371Z,22.39
2022-08-20T05:05:08.792Z,22.49
2022-08-20T05:07:13.502Z,22.30
2022-08-20T05:09:16.098Z,22.26
2022-08-20T05:11:35.979Z,21.74
2022-08-20T05:13:39.436Z,22.45
2022-08-20T05:15:42.467Z,22.55
2022-08-20T05:17:51.334Z,22.54
2022-08-20T05:19:53.995Z,22.22
2022-08-20T05:21:56.574Z,22.58
2022-08-20T05:23:59.187Z,22.42
2022-08-20T05:26:07.475Z,22.63
2022-08-20T05:28:22.794Z,22.28
2022-08-20T05:30:25.510Z,22.28
2022-08-20T05:32:29.123Z,22.58
2022-08-20T05:34:31.711Z,22.07
2022-08-20T05:36:49.101Z,22.65
2022-08-20T05:38:52.454Z,22.53
2022-08-20T05:40:55.284Z,22.51
2022-08-20T05:42:57.901Z,21.81
2022-08-20T05:45:00.490Z,22.40
2022-08-20T05:47:04.623Z,22.75
2022-08-20T05:49:10.315Z,22.79
2022-08-20T05:51:41.851Z,22.55
2022-08-20T05:53:44.649Z,22.66
2022-08-20T05:55:49.429Z,22.57
2022-08-20T05:58:02.428Z,22.76
2022-08-20T06:00:12.122Z,22.81
2022-08-20T06:02:34.171Z,22.87
2022-08-20T06:04:36.735Z,22.49
2022-08-20T06:06:45.911Z,22.45
2022-08-20T06:08:49.311Z,22.62
2022-08-20T06:10:53.857Z,22.73
2022-08-20T06:12:56.519Z,22.70
2022-08-20T06:15:00.035Z,22.51
2022-08-20T06:17:07.075Z,22.87
2022-08-20T06:19:11.421Z,22.94
2022-08-20T06:21:20.139Z,22.74
2022-08-20T06:23:25.312Z,22.97
2022-08-20T06:25:29.602Z,23.01
2022-08-20T06:27:32.193Z,22.89
2022-08-20T06:29:38.388Z,22.94
2022-08-20T06:31:42.241Z,22.86
2022-08-20T06:33:44.886Z,22.53
2022-08-20T06:35:49.060Z,22.93
2022-08-20T06:37:52.973Z,23.19
2022-08-20T06:39:55.693Z,23.11
2022-08-20T06:41:58.796Z,22.89
2022-08-20T06:44:01.456Z,22.53
2022-08-20T06:46:05.545Z,23.33
2022-08-20T06:48:15.419Z,23.30
2022-08-20T06:50:24.364Z,23.09
2022-08-20T06:52:47.103Z,22.80
2022-08-20T06:54:49.724Z,23.30
2022-08-20T06:56:54.218Z,23.49
2022-08-20T06:58:57.859Z,23.13
2022-08-20T07:01:04.922Z,23.04
2022-08-20T07:03:16.251Z,23.16
2022-08-20T07:05:19.389Z,23.14
2022-08-20T07:07:22.052Z,22.65
2022-08-20T07:09:26.725Z,23.22
2022-08-20T07:11:29.491Z,23.12
2022-08-20T07:13:32.461Z,23.32
2022-08-20T07:15:35.312Z,22.97
2022-08-20T07:17:39.610Z,23.16
2022-08-20T07:19:42.181Z,23.10
2022-08-20T07:21:54.969Z,23.17
2022-08-20T07:23:58.642Z,23.03
2022-08-20T07:26:01.540Z,23.10
2022-08-20T07:28:28.598Z,23.19
2022-08-20T07:30:55.850Z,23.19
2022-08-20T07:33:00.072Z,23.20
2022-08-20T07:35:12.822Z,23.28
2022-08-20T07:37:15.451Z,23.25
2022-08-20T07:39:19.153Z,23.34
2022-08-20T07:41:23.306Z,22.77
2022-08-20T07:43:27.670Z,23.32
2022-08-20T07:45:31.835Z,23.54
2022-08-20T07:47:35.887Z,23.52
2022-08-20T07:49:40.163Z,22.93
2022-08-20T07:51:42.999Z,23.07
2022-08-20T07:53:47.903Z,23.09
2022-08-20T07:55:58.787Z,23.68
2022-08-20T07:58:14.725Z,22.73
2022-08-20T08:00:22.660Z,23.63
2022-08-20T08:02:30.328Z,23.59
2022-08-20T08:04:33.006Z,23.49
2022-08-20T08:06:35.664Z,23.00
2022-08-20T08:08:40.515Z,23.45
2022-08-20T08:10:45.510Z,23.87
2022-08-20T08:13:06.606Z,23.71
2022-08-20T08:15:15.748Z,23.20
2022-08-20T08:17:19.493Z,23.17
2022-08-20T08:19:22.674Z,23.85
2022-08-20T08:21:26.463Z,23.57
2022-08-20T08:23:32.057Z,23.21
2022-08-20T08:25:35.018Z,23.73
2022-08-20T08:27:38.252Z,23.43
2022-08-20T08:29:41.162Z,23.61
2022-08-20T08:31:44.066Z,23.85
2022-08-20T08:33:46.826Z,23.15
2022-08-20T08:35:49.624Z,23.06
2022-08-20T08:37:54.052Z,23.90
2022-08-20T08:39:56.729Z,22.90
2022-08-20T08:42:03.724Z,23.90
2022-08-20T08:44:27.405Z,23.60
2022-08-20T08:46:43.574Z,23.50
2022-08-20T08:48:49.201Z,23.71
2022-08-20T08:50:54.990Z,23.85
2022-08-20T08:53:00.495Z,23.76
2022-08-20T08:55:08.190Z,24.00
2022-08-20T08:57:11.232Z,24.23
2022-08-20T08:59:14.112Z,23.65
2022-08-20T09:01:55.063Z,24.16
2022-08-20T09:03:51.965Z,23.74
2022-08-20T09:05:59.917Z,24.34
2022-08-20T09:08:08.277Z,24.46
2022-08-20T09:10:11.257Z,24.05
2022-08-20T09:12:20.353Z,23.87
2022-08-20T09:14:26.875Z,24.30
2022-08-20T09:16:45.781Z,23.99
2022-08-20T09:18:52.660Z,23.88
2022-08-20T09:20:55.876Z,24.60
2022-08-20T09:23:00.599Z,24.30
2022-08-20T09:25:05.235Z,24.79
2022-08-20T09:27:08.583Z,24.50
2022-08-20T09:29:11.276Z,25.00
2022-08-20T09:31:14.055Z,24.62
2022-08-20T09:33:20.836Z,24.84
2022-08-20T09:35:24.138Z,24.36
2022-08-20T09:37:33.592Z,25.03
2022-08-20T09:39:40.169Z,24.48
2022-08-20T09:41:43.236Z,24.90
2022-08-20T09:43:46.080Z,24.60
2022-08-20T09:45:49.778Z,24.96
2022-08-20T09:47:55.392Z,24.89
2022-08-20T09:50:00.028Z,24.94
2022-08-20T09:52:06.315Z,25.05
2022-08-20T09:54:08.972Z,24.80
2022-08-20T09:56:12.271Z,25.28
2022-08-20T09:58:31.540Z,25.15
2022-08-20T10:00:34.303Z,24.62
2022-08-20T10:02:36.932Z,25.36
2022-08-20T10:04:39.583Z,25.20
2022-08-20T10:06:44.048Z,25.33
2022-08-20T10:08:47.980Z,24.76
2022-08-20T10:10:50.797Z,24.77
2022-08-20T10:12:55.035Z,25.10
2022-08-20T10:14:58.144Z,24.83
2022-08-20T10:17:03.445Z,25.19
2022-08-20T10:19:06.260Z,25.26
2022-08-20T10:21:12.848Z,25.40
2022-08-20T10:23:15.678Z,25.00
2022-08-20T10:25:18.992Z,25.01
2022-08-20T10:27:21.634Z,24.90
2022-08-20T10:29:25.359Z,24.41
2022-08-20T10:31:27.960Z,24.45
2022-08-20T10:33:30.609Z,24.84
2022-08-20T10:35:33.385Z,24.92
2022-08-20T10:37:36.492Z,24.95
2022-08-20T10:39:39.260Z,24.54
2022-08-20T10:41:43.061Z,24.51
2022-08-20T10:43:45.974Z,24.98
2022-08-20T10:45:48.563Z,24.91
2022-08-20T10:47:51.208Z,25.11
2022-08-20T10:49:56.403Z,24.87
2022-08-20T10:51:58.988Z,24.11
2022-08-20T10:54:01.625Z,24.92
2022-08-20T10:56:04.577Z,24.98
2022-08-20T10:58:08.837Z,25.01
2022-08-20T11:00:17.295Z,24.99
2022-08-20T11:02:21.503Z,24.94
2022-08-20T11:04:24.133Z,24.52
2022-08-20T11:06:26.754Z,24.88
2022-08-20T11:08:34.182Z,24.45
2022-08-20T11:10:40.109Z,24.60
2022-08-20T11:12:44.708Z,24.78
2022-08-20T11:14:51.702Z,24.70
2022-08-20T11:16:54.331Z,24.62
2022-08-20T11:18:57.104Z,24.55
2022-08-20T11:21:00.163Z,24.61
2022-08-20T11:23:03.404Z,24.69
2022-08-20T11:25:10.894Z,24.35
2022-08-20T11:27:24.813Z,24.64
2022-08-20T11:29:30.008Z,24.60
2022-08-20T11:31:36.070Z,23.87
2022-08-20T11:33:38.704Z,24.51
2022-08-20T11:35:48.939Z,24.57
2022-08-20T11:37:55.604Z,24.72
2022-08-20T11:39:58.472Z,24.51
2022-08-20T11:42:01.969Z,24.76
2022-08-20T11:44:20.818Z,24.22
2022-08-20T11:46:28.364Z,24.55
2022-08-20T11:48:31.268Z,24.17
2022-08-20T11:50:33.944Z,24.52
2022-08-20T11:52:36.930Z,24.62
2022-08-20T11:54:42.646Z,24.34
2022-08-20T11:56:46.263Z,24.16
2022-08-20T11:58:48.920Z,23.93
2022-08-20T12:00:52.244Z,24.12
2022-08-20T12:03:09.263Z,24.76
2022-08-20T12:05:44.902Z,24.67
2022-08-20T12:07:48.116Z,24.62
2022-08-20T12:09:51.902Z,24.55
2022-08-20T12:11:54.576Z,24.73
2022-08-20T12:13:57.201Z,24.34
2022-08-20T12:16:00.694Z,24.97
2022-08-20T12:18:10.187Z,24.94
2022-08-20T12:20:15.000Z,24.81
2022-08-20T12:22:24.639Z,24.92
2022-08-20T12:24:29.112Z,24.94
2022-08-20T12:26:32.782Z,24.54
2022-08-20T12:28:40.469Z,25.02
2022-08-20T12:30:43.347Z,25.04
2022-08-20T12:32:47.753Z,24.93
2022-08-20T12:34:50.652Z,24.94
2022-08-20T12:37:07.393Z,24.85
2022-08-20T12:39:10.007Z,24.25
2022-08-20T12:41:12.681Z,23.90
2022-08-20T12:43:15.227Z,24.54
2022-08-20T12:45:18.468Z,24.75
2022-08-20T12:47:34.626Z,24.58
2022-08-20T12:49:38.690Z,24.33
2022-08-20T12:51:41.286Z,24.44
2022-08-20T12:53:43.902Z,23.81
2022-08-20T12:55:47.077Z,24.03
2022-08-20T12:57:59.200Z,24.33
2022-08-20T13:00:15.512Z,24.31
2022-08-20T13:02:19.158Z,24.48
2022-08-20T13:04:21.849Z,24.46
2022-08-20T13:06:28.495Z,24.23
2022-08-20T13:08:31.409Z,24.32
2022-08-20T13:10:36.740Z,24.14
2022-08-20T13:12:39.367Z,24.34
2022-08-20T13:14:42.688Z,24.39
2022-08-20T13:16:45.664Z,24.50
2022-08-20T13:18:48.278Z,24.67
2022-08-20T13:20:58.715Z,24.60
2022-08-20T13:23:01.750Z,24.67
2022-08-20T13:25:06.509Z,24.51
2022-08-20T13:27:13.470Z,24.93
2022-08-20T13:29:17.521Z,24.95
2022-08-20T13:31:20.199Z,25.06
2022-08-20T13:33:26.629Z,24.37
2022-08-20T13:35:30.263Z,25.09
2022-08-20T13:37:33.407Z,24.93
2022-08-20T13:39:40.086Z,25.07
2022-08-20T13:41:43.726Z,24.92
2022-08-20T13:43:46.291Z,24.78
2022-08-20T13:45:48.968Z,24.83
2022-08-20T13:47:55.272Z,24.68
2022-08-20T13:50:10.185Z,24.59
2022-08-20T13:52:12.858Z,24.51
2022-08-20T13:54:19.591Z,24.06
2022-08-20T13:56:22.755Z,24.52
2022-08-20T13:58:25.391Z,24.40
2022-08-20T14:00:32.507Z,24.40
2022-08-20T14:02:36.285Z,24.40
2022-08-20T14:04:39.782Z,24.45
2022-08-20T14:06:42.377Z,23.71
2022-08-20T14:08:44.979Z,24.39
2022-08-20T14:10:51.782Z,23.77
2022-08-20T14:12:54.564Z,24.32
2022-08-20T14:14:57.185Z,23.41
2022-08-20T14:16:59.812Z,24.33
2022-08-20T14:19:04.169Z,23.74
2022-08-20T14:21:07.799Z,24.27
2022-08-20T14:23:10.560Z,23.72
2022-08-20T14:25:20.272Z,24.54
2022-08-20T14:27:27.647Z,24.58
2022-08-20T14:29:36.049Z,24.06
2022-08-20T14:31:39.554Z,24.16
2022-08-20T14:33:44.670Z,24.01
2022-08-20T14:35:47.579Z,24.31
2022-08-20T14:37:54.259Z,24.69
2022-08-20T14:40:00.326Z,24.67
2022-08-20T14:42:03.052Z,24.54
2022-08-20T14:44:05.626Z,24.32
2022-08-20T14:46:08.416Z,24.09
2022-08-20T14:48:11.083Z,24.00
2022-08-20T14:50:27.577Z,24.46
2022-08-20T14:52:31.354Z,24.48
2022-08-20T14:54:35.378Z,23.95
2022-08-20T14:56:38.072Z,24.53
2022-08-20T14:58:40.634Z,24.12
2022-08-20T15:00:44.282Z,24.57
2022-08-20T15:02:49.301Z,24.75
2022-08-20T15:04:54.480Z,24.76
2022-08-20T15:07:07.471Z,24.66
2022-08-20T15:09:14.083Z,24.44
2022-08-20T15:11:16.778Z,24.56
2022-08-20T15:13:19.374Z,24.17
2022-08-20T15:15:23.998Z,24.72
2022-08-20T15:17:30.122Z,24.38
2022-08-20T15:19:33.051Z,24.25
2022-08-20T15:21:45.097Z,24.77
2022-08-20T15:23:49.268Z,24.88
2022-08-20T15:25:52.020Z,24.26
2022-08-20T15:28:01.884Z,24.79
2022-08-20T15:30:13.743Z,24.83
2022-08-20T15:32:16.635Z,24.14
2022-08-20T15:34:23.595Z,24.60
2022-08-20T15:36:26.664Z,24.74
2022-08-20T15:38:30.373Z,24.36
2022-08-20T15:40:34.018Z,24.30
2022-08-20T15:42:37.421Z,24.61
2022-08-20T15:44:40.753Z,24.75
2022-08-20T15:46:43.363Z,24.70
2022-08-20T15:48:47.903Z,24.14
2022-08-20T15:51:11.935Z,24.61
2022-08-20T15:53:56.642Z,24.60
2022-08-20T15:56:32.461Z,24.23
2022-08-20T15:59:09.382Z,24.44
2022-08-20T16:01:37.226Z,24.57
2022-08-20T16:04:30.595Z,24.39
2022-08-20T16:06:34.152Z,24.29
2022-08-20T16:08:49.756Z,24.55
2022-08-20T16:11:10.728Z,24.54
2022-08-20T16:13:30.774Z,24.52
2022-08-20T16:15:46.228Z,24.50
2022-08-20T16:18:31.315Z,24.39
2022-08-20T16:20:43.130Z,24.19
2022-08-20T16:22:55.339Z,24.01
2022-08-20T16:25:01.718Z,24.40
2022-08-20T16:27:36.808Z,24.25
2022-08-20T16:30:05.187Z,24.34
2022-08-20T16:32:18.304Z,23.64
2022-08-20T16:34:34.811Z,23.91
2022-08-20T16:36:43.952Z,24.33
2022-08-20T16:38:55.195Z,24.20
2022-08-20T16:41:12.407Z,24.28
2022-08-20T16:43:29.929Z,24.17
2022-08-20T16:45:51.035Z,24.42
2022-08-20T16:47:58.886Z,24.44
2022-08-20T16:50:11.170Z,24.47
2022-08-20T16:52:13.891Z,24.35
2022-08-20T16:54:18.388Z,24.55
2022-08-20T16:56:39.630Z,24.05
2022-08-20T16:58:45.516Z,24.51
2022-08-20T17:00:48.851Z,24.58
2022-08-20T17:02:55.363Z,24.56
2022-08-20T17:05:05.586Z,24.41
2022-08-20T17:07:11.761Z,24.02
2022-08-20T17:09:33.287Z,24.37
2022-08-20T17:11:37.703Z,24.48
2022-08-20T17:13:45.188Z,24.50
2022-08-20T17:16:18.971Z,24.44
2022-08-20T17:18:37.349Z,24.42
2022-08-20T17:20:45.174Z,23.83
2022-08-20T17:23:12.256Z,24.35
2022-08-20T17:25:21.994Z,24.38
2022-08-20T17:27:39.691Z,24.17
2022-08-20T17:29:57.890Z,24.16
2022-08-20T17:32:29.047Z,24.07
2022-08-20T17:34:48.706Z,24.05
2022-08-20T17:37:01.331Z,24.07
2022-08-20T17:39:18.515Z,24.05
2022-08-20T17:41:21.785Z,24.10
2022-08-20T17:43:31.796Z,24.01
2022-08-20T17:45:44.289Z,23.83
2022-08-20T17:47:47.883Z,23.92
2022-08-20T17:50:16.783Z,23.87
2022-08-20T17:52:27.419Z,23.63
2022-08-20T17:54:42.364Z,23.52
2022-08-20T17:56:45.061Z,23.65
2022-08-20T17:59:05.970Z,23.72
2022-08-20T18:01:14.987Z,22.92
2022-08-20T18:03:23.901Z,23.58
2022-08-20T18:05:30.344Z,23.54
2022-08-20T18:08:14.529Z,23.23
2022-08-20T18:10:25.384Z,23.53
2022-08-20T18:12:41.609Z,23.54
2022-08-20T18:15:04.606Z,23.52
2022-08-20T18:17:41.847Z,23.24
2022-08-20T18:20:14.219Z,23.30
2022-08-20T18:22:25.158Z,23.39
2022-08-20T18:24:54.144Z,23.45
2022-08-20T18:27:02.665Z,23.37
2022-08-20T18:29:41.630Z,22.68
2022-08-20T18:31:50.507Z,23.32
2022-08-20T18:33:53.825Z,23.32
2022-08-20T18:36:26.092Z,23.30
2022-08-20T18:38:31.653Z,23.31
2022-08-20T18:40:34.312Z,22.70
2022-08-20T18:42:37.855Z,23.31
2022-08-20T18:44:45.066Z,23.27
2022-08-20T18:46:52.908Z,23.29
2022-08-20T18:49:02.744Z,23.31
2022-08-20T18:51:12.761Z,23.03
2022-08-20T18:53:34.177Z,22.60
2022-08-20T18:55:46.903Z,23.18
2022-08-20T18:58:00.963Z,23.06
2022-08-20T19:00:12.932Z,23.06
2022-08-20T19:02:32.734Z,23.03
2022-08-20T19:04:37.281Z,22.95
2022-08-20T19:06:57.826Z,23.18
2022-08-20T19:09:19.253Z,23.16
2022-08-20T19:12:03.131Z,23.01
2022-08-20T19:15:00.614Z,23.15
2022-08-20T19:17:28.317Z,23.08
2022-08-20T19:19:38.113Z,22.94
2022-08-20T19:21:42.738Z,22.84
2022-08-20T19:23:55.484Z,22.50
2022-08-20T19:26:03.196Z,23.02
2022-08-20T19:28:29.638Z,22.99
2022-08-20T19:30:39.964Z,22.99
2022-08-20T19:32:52.966Z,22.49
2022-08-20T19:35:06.217Z,22.93
2022-08-20T19:37:35.044Z,22.90
2022-08-20T19:39:42.089Z,22.77
2022-08-20T19:41:59.299Z,22.85
2022-08-20T19:44:02.701Z,22.83
2022-08-20T19:46:06.245Z,22.74
2022-08-20T19:48:45.651Z,22.89
2022-08-20T19:51:09.486Z,22.63
2022-08-20T19:53:32.713Z,22.62
2022-08-20T19:55:38.034Z,22.71
2022-08-20T19:57:55.048Z,22.52
2022-08-20T20:00:12.799Z,22.69
2022-08-20T20:02:21.311Z,22.68
2022-08-20T20:04:28.038Z,22.81
2022-08-20T20:06:43.207Z,22.79
2022-08-20T20:09:00.182Z,22.81
2022-08-20T20:11:03.328Z,22.36
2022-08-20T20:13:15.266Z,22.62
2022-08-20T20:15:18.485Z,22.79
2022-08-20T20:17:31.978Z,22.52
2022-08-20T20:20:00.953Z,22.63
2022-08-20T20:22:20.233Z,22.55
2022-08-20T20:24:31.259Z,21.87
2022-08-20T20:26:41.010Z,22.61
2022-08-20T20:29:02.492Z,22.54
2022-08-20T20:31:10.350Z,22.60
2022-08-20T20:33:27.886Z,22.37
2022-08-20T20:35:35.653Z,22.57
2022-08-20T20:37:50.278Z,22.45
2022-08-20T20:40:48.489Z,22.61
2022-08-20T20:43:07.433Z,22.68
2022-08-20T20:45:19.530Z,22.59
2022-08-20T20:47:27.822Z,22.59
2022-08-20T20:49:47.570Z,22.14
2022-08-20T20:52:14.906Z,22.48
2022-08-20T20:54:49.236Z,22.70
2022-08-20T20:57:38.739Z,22.70
2022-08-20T20:59:42.191Z,22.61
2022-08-20T21:01:49.203Z,22.39
2022-08-20T21:03:53.150Z,22.06
2022-08-20T21:05:55.874Z,22.21
2022-08-20T21:08:02.619Z,22.53
2022-08-20T21:10:05.889Z,22.60
2022-08-20T21:12:10.587Z,22.48
2022-08-20T21:14:13.501Z,22.05
2022-08-20T21:16:17.328Z,22.72
2022-08-20T21:18:22.956Z,22.67
2022-08-20T21:20:29.657Z,22.73
2022-08-20T21:22:32.274Z,22.66
2022-08-20T21:24:34.849Z,22.12
2022-08-20T21:26:40.048Z,22.48
2022-08-20T21:28:42.642Z,21.96
2022-08-20T21:30:45.222Z,22.03
2022-08-20T21:32:48.410Z,22.16
2022-08-20T21:34:51.079Z,22.00
2022-08-20T21:36:54.238Z,22.39
2022-08-20T21:38:58.970Z,22.22
2022-08-20T21:41:01.797Z,22.03
2022-08-20T21:43:06.633Z,22.64
2022-08-20T21:45:14.252Z,22.47
2022-08-20T21:47:21.350Z,22.58
2022-08-20T21:49:25.326Z,22.49
2022-08-20T21:51:28.224Z,22.68
2022-08-20T21:53:31.185Z,22.64
2022-08-20T21:55:39.414Z,22.44
2022-08-20T21:57:43.485Z,22.47
2022-08-20T21:59:46.463Z,22.12
2022-08-20T22:01:49.492Z,22.42
2022-08-20T22:03:52.165Z,22.00
2022-08-20T22:05:55.305Z,22.37
2022-08-20T22:07:58.029Z,21.70
2022-08-20T22:10:00.606Z,21.79
2022-08-20T22:12:04.739Z,21.75
2022-08-20T22:14:10.005Z,22.09
2022-08-20T22:16:16.176Z,22.39
2022-08-20T22:18:18.866Z,22.37
2022-08-20T22:20:21.544Z,22.13
2022-08-20T22:22:32.127Z,22.24
2022-08-20T22:24:34.727Z,22.23
2022-08-20T22:26:40.168Z,22.22
2022-08-20T22:28:43.926Z,21.68
2022-08-20T22:30:53.765Z,21.46
2022-08-20T22:33:03.705Z,21.98
2022-08-20T22:35:07.082Z,22.17
2022-08-20T22:37:13.838Z,22.03
2022-08-20T22:39:17.325Z,21.60
2022-08-20T22:41:20.583Z,21.46
2022-08-20T22:43:23.942Z,22.13
2022-08-20T22:45:26.629Z,21.89
2022-08-20T22:47:29.818Z,21.44
2022-08-20T22:49:35.079Z,22.09
2022-08-20T22:51:39.568Z,21.76
2022-08-20T22:53:45.566Z,21.89
2022-08-20T22:55:49.339Z,22.08
2022-08-20T22:57:51.954Z,22.02
2022-08-20T22:59:55.096Z,22.05
2022-08-20T23:01:58.107Z,21.52
2022-08-20T23:04:10.526Z,22.12
2022-08-20T23:06:14.270Z,22.13
2022-08-20T23:08:17.678Z,22.05
2022-08-20T23:10:20.546Z,21.40
2022-08-20T23:12:23.381Z,21.61
2022-08-20T23:14:27.009Z,21.96
2022-08-20T23:16:30.248Z,21.24
2022-08-20T23:18:36.098Z,22.09
2022-08-20T23:20:39.187Z,22.13
2022-08-20T23:22:41.778Z,22.05
2022-08-20T23:24:45.201Z,21.85
2022-08-20T23:26:52.574Z,22.07
2022-08-20T23:28:55.992Z,22.00
2022-08-20T23:31:02.146Z,22.04
2022-08-20T23:33:04.785Z,21.92
2022-08-20T23:35:08.969Z,21.37
2022-08-20T23:37:12.400Z,21.08
2022-08-20T23:39:15.366Z,22.00
2022-08-20T23:41:18.785Z,21.57
2022-08-20T23:43:24.075Z,21.69
2022-08-20T23:45:27.602Z,21.24
2022-08-20T23:47:30.198Z,21.39
2022-08-20T23:49:32.976Z,21.45
2022-08-20T23:51:35.538Z,21.17
2022-08-20T23:53:41.790Z,21.15
2022-08-20T23:55:44.446Z,21.40
2022-08-20T23:57:47.110Z,21.24
2022-08-20T23:59:51.286Z,21.83
